Terminal Aerodrome Forecast
Issued by NWS

Home | Current Version | Previous Version | Text Only | Print | Product List | Glossary Off
Versions: 1 2 3 4 5 6 7 8 9 10 11 12 13 14 15 16

000
FTUS43 KBIS 250032 AAA
TAFMOT
TAF AMD
KMOT 250032Z 2501/2524 25017G24KT P6SM VCSH FEW050 BKN070
     FM250300 30016KT P6SM VCSH OVC020
     FM251000 30009KT P6SM BKN020
     FM251400 30009KT P6SM BKN035
     FM251800 30010G16KT P6SM SCT080=

USA.gov is the U.S. government's official web portal to all federal, state and local government web resources and services.